Historyczne dane pomiarowe

Dodano dane terminowe – wersja testowa.

Dane z okresu 1951-2019

Wersja bazy: 1.34 [2019-03-16, lista zmian], aktualizacja planowana na 2019-04-15

Dane meteo z obszaru Polski uzyskane na podstawie danych udostępnionych przez Instytut Meteorologii i Gospodarki Wodnej – Państwowy Instytut Badawczy.

 

Wybierz Datę:    

       

TemperaturaWilgotnośćWiatrCiśnienieOpadyŚniegCzas trwania zjawisk
 Stacja t tx tn tng RH VA  wxwx mslp ppp RRR   cm mm wxwxwxwxwxwxwx
1952-02-26 -0.2- -3.4- 89.5- 4.7 1.0---- 1.7-- 10---------
1952-02-27 -4.5- -8.2- 84.5- 7.3 1.7---- 0.0-- 12---------
1952-02-28 -9.7--13.1- 82.8- 1.7 0.0---- 0.0-- 12---------
1952-02-29 -5.8--13.1- 86.8- 8.0 3.7---- 1.7-- 12---------
1952-03-01 -3.1 0.9 -5.5- 79.5- 5.3 6.7---- 1.0-- 17---------
1952-03-02 -4.8 -0.4 -6.8- 78.5- 1.7 3.3---- 0.1-- 18---------
1952-03-03 -4.2 1.1-14.6- 56.0- 2.0 0.0---- 0.0-- 17---------
1952-03-04-11.2 -1.9-16.1- 73.3- 0.3 1.7---- 0.0-- 17---------
1952-03-05 -5.6 -2.8-12.6- 80.0- 4.3 4.0---- 0.0-- 17---------
1952-03-06 -7.8 -2.4-10.4- 57.5- 0.3 4.3---- 0.0-- 17---------
1952-03-07 -7.0 -4.9 -9.5- 53.3- 4.7 4.0---- 0.0-- 16---------
1952-03-08-10.0 -1.4-14.3- 64.0- 0.0 2.0---- 0.0-- 15---------
1952-03-09 -8.0 0.6-18.6- 72.8- 0.0 1.3---- 0.0-- 13---------
1952-03-10 -3.8 5.1-15.6- 80.3- 0.0 1.0---- 0.0-- 12---------
1952-03-11 -1.5 4.7-11.6- 68.0- 0.0 3.3---- 0.0-- 10---------
1952-03-12 1.1 2.5 -3.1- 94.8- 6.0 3.3---- 0.0-- 8---------
1952-03-13 -0.6 1.3 -3.4- 90.5- 7.3 3.7---- 2.0-- 8---------
1952-03-14 -7.0 -2.4 -9.5- 67.0- 2.7 3.3---- 0.0-- 10---------
1952-03-15 -1.3 1.4-10.5- 84.5- 2.3 5.0---- 0.0-- 10---------
1952-03-16 0.4 3.7 -1.5- 69.5- 2.3 3.7---- 0.0-- 9---------
1952-03-17 -0.4 3.2 -3.4- 86.3- 1.3 3.7---- 0.0-- 7---------
1952-03-18 -6.9 -2.4 -9.5- 56.8- 0.3 2.3---- 0.0-- 6---------
1952-03-19 -7.2 -1.5-14.1- 66.5- 1.3 1.7---- 0.0-- 6---------
1952-03-20 -5.8 -2.0-13.3- 65.8- 2.0 3.0---- 0.0-- 5---------
1952-03-21 -6.4 -2.8 -8.5- 66.3- 4.3 2.3---- 0.0-- 5---------
1952-03-22-10.2 -5.4-17.3- 53.8- 0.0 1.3---- 0.0-- 4---------
1952-03-23 -7.6 -3.6-11.6- 67.5- 1.3 2.0---- 0.0-- 4---------
1952-03-24 -1.2 0.7-11.1- 89.3- 6.3 3.7---- 0.8-- 4---------
1952-03-25 -6.0 0.8 -9.6- 75.5- 4.0 2.3---- 0.5-- 5---------
1952-03-26 -8.6 -4.3-11.6- 73.5- 0.3 2.3---- 0.0-- 5---------
130.1 ms

 

Źródłem pochodzenia danych jest Instytut Meteorologii i Gospodarki Wodnej – Państwowy Instytut Badawczy. Dane Instytutu Meteorologii i Gospodarki Wodnej – Państwowego Instytutu Badawczego zostały przetworzone.

Dane źródłowe można odnaleźć na stronie https://dane.imgw.pl